Rechercher aéroport 
image banner adimage banner adimage banner ad
image banner ad

CL39 - Napa County Fire Dept

Situé à St Helena, United States

ICAO - CL39, IATA -

Données fournies par Airmate  

Information générale

Coordonnées: N38°32'55" W122°30'39"
Élévation : 308 feet MSL.
Variation magnétique : 16° East
Voir autres Aéroports à California

Données opérationnelles

Special qualification required
Heure actuelle UTC:
Heure actuelle locale:
METAR: KSTS 020553Z AUTO 19003KT 10SM CLR 13/11 A3009 RMK AO2 SLP184 T01330111 10233 20133 51013
TAF: KSTS 020535Z 0206/0306 VRB04KT P6SM SKC FM020900 00000KT P6SM OVC007 FM021600 VRB04KT P6SM BKN012 FM021730 VRB04KT P6SM FEW012 FM030400 VRB05KT P6SM FEW007
Voir NOTAMs / SUP AIP / TFR affectant cet aéroport [VIEW]
Fréquences de communication: [VIEW]

Pistes:

Coordonnées de l'aéroport

Adresse: St Helena United States

Vue satellite de CL39